sensor_id;sensor_type;location;lat;lon;timestamp;P1;durP1;ratioP1;P2;durP2;ratioP2
59338;SDS011;45117;50.960;5.500;2023-05-29T00:02:07;11.60;;;3.92;;
59338;SDS011;45117;50.960;5.500;2023-05-29T00:04:34;10.23;;;4.40;;
59338;SDS011;45117;50.960;5.500;2023-05-29T00:07:01;10.40;;;4.53;;
59338;SDS011;45117;50.960;5.500;2023-05-29T00:09:28;11.40;;;5.00;;
59338;SDS011;45117;50.960;5.500;2023-05-29T00:11:55;10.35;;;4.63;;
59338;SDS011;45117;50.960;5.500;2023-05-29T00:14:23;10.25;;;4.43;;
59338;SDS011;45117;50.960;5.500;2023-05-29T00:16:49;10.50;;;4.70;;
59338;SDS011;45117;50.960;5.500;2023-05-29T00:19:17;12.25;;;5.15;;
59338;SDS011;45117;50.960;5.500;2023-05-29T00:21:44;9.80;;;4.53;;
59338;SDS011;45117;50.960;5.500;2023-05-29T00:24:12;10.70;;;4.60;;
59338;SDS011;45117;50.960;5.500;2023-05-29T00:26:39;12.75;;;5.00;;
59338;SDS011;45117;50.960;5.500;2023-05-29T00:29:06;9.23;;;4.30;;
59338;SDS011;45117;50.960;5.500;2023-05-29T00:31:33;10.50;;;4.55;;
59338;SDS011;45117;50.960;5.500;2023-05-29T00:34:00;11.82;;;4.63;;
59338;SDS011;45117;50.960;5.500;2023-05-29T00:36:27;11.48;;;4.68;;
59338;SDS011;45117;50.960;5.500;2023-05-29T00:38:54;14.32;;;4.85;;
59338;SDS011;45117;50.960;5.500;2023-05-29T00:41:21;10.65;;;4.50;;
59338;SDS011;45117;50.960;5.500;2023-05-29T00:43:47;12.30;;;5.20;;
59338;SDS011;45117;50.960;5.500;2023-05-29T00:46:14;12.77;;;4.82;;
59338;SDS011;45117;50.960;5.500;2023-05-29T00:48:43;9.25;;;4.63;;
59338;SDS011;45117;50.960;5.500;2023-05-29T00:51:10;9.57;;;5.55;;
59338;SDS011;45117;50.960;5.500;2023-05-29T00:53:38;11.35;;;4.80;;
59338;SDS011;45117;50.960;5.500;2023-05-29T00:56:06;13.15;;;5.65;;
59338;SDS011;45117;50.960;5.500;2023-05-29T00:58:32;10.77;;;5.70;;
59338;SDS011;45117;50.960;5.500;2023-05-29T01:00:59;10.73;;;5.22;;
59338;SDS011;45117;50.960;5.500;2023-05-29T01:03:26;10.55;;;4.93;;
59338;SDS011;45117;50.960;5.500;2023-05-29T01:05:54;10.45;;;5.38;;
59338;SDS011;45117;50.960;5.500;2023-05-29T01:08:22;11.70;;;5.38;;
59338;SDS011;45117;50.960;5.500;2023-05-29T01:10:50;13.63;;;5.57;;
59338;SDS011;45117;50.960;5.500;2023-05-29T01:13:23;9.18;;;5.13;;
59338;SDS011;45117;50.960;5.500;2023-05-29T01:15:54;12.38;;;5.50;;
59338;SDS011;45117;50.960;5.500;2023-05-29T01:18:30;13.07;;;6.68;;
59338;SDS011;45117;50.960;5.500;2023-05-29T01:21:06;13.15;;;5.53;;
59338;SDS011;45117;50.960;5.500;2023-05-29T01:26:51;12.45;;;6.45;;
59338;SDS011;45117;50.960;5.500;2023-05-29T01:29:21;16.23;;;6.38;;
59338;SDS011;45117;50.960;5.500;2023-05-29T01:31:50;13.45;;;5.57;;
59338;SDS011;45117;50.960;5.500;2023-05-29T01:34:17;15.43;;;6.75;;
59338;SDS011;45117;50.960;5.500;2023-05-29T01:36:44;12.98;;;6.53;;
59338;SDS011;45117;50.960;5.500;2023-05-29T01:39:11;14.60;;;6.82;;
59338;SDS011;45117;50.960;5.500;2023-05-29T01:41:38;16.38;;;6.32;;
59338;SDS011;45117;50.960;5.500;2023-05-29T01:44:07;12.20;;;6.95;;
59338;SDS011;45117;50.960;5.500;2023-05-29T01:46:35;12.80;;;6.03;;
59338;SDS011;45117;50.960;5.500;2023-05-29T01:49:03;13.38;;;6.25;;
59338;SDS011;45117;50.960;5.500;2023-05-29T01:51:30;16.15;;;6.68;;
59338;SDS011;45117;50.960;5.500;2023-05-29T01:53:57;11.82;;;6.30;;
59338;SDS011;45117;50.960;5.500;2023-05-29T01:56:25;14.93;;;6.95;;
59338;SDS011;45117;50.960;5.500;2023-05-29T01:58:52;18.75;;;7.30;;
59338;SDS011;45117;50.960;5.500;2023-05-29T02:01:20;15.80;;;6.38;;
59338;SDS011;45117;50.960;5.500;2023-05-29T02:03:47;14.77;;;6.95;;
59338;SDS011;45117;50.960;5.500;2023-05-29T02:06:14;19.70;;;7.45;;
59338;SDS011;45117;50.960;5.500;2023-05-29T02:08:40;16.38;;;7.28;;
59338;SDS011;45117;50.960;5.500;2023-05-29T02:11:07;13.18;;;6.90;;
59338;SDS011;45117;50.960;5.500;2023-05-29T02:13:33;15.45;;;7.55;;
59338;SDS011;45117;50.960;5.500;2023-05-29T02:16:00;16.23;;;6.55;;
59338;SDS011;45117;50.960;5.500;2023-05-29T02:18:28;18.05;;;7.78;;
59338;SDS011;45117;50.960;5.500;2023-05-29T02:20:54;15.52;;;6.90;;
59338;SDS011;45117;50.960;5.500;2023-05-29T02:23:21;11.88;;;6.15;;
59338;SDS011;45117;50.960;5.500;2023-05-29T02:25:47;19.67;;;6.68;;
59338;SDS011;45117;50.960;5.500;2023-05-29T02:28:14;16.55;;;6.70;;
59338;SDS011;45117;50.960;5.500;2023-05-29T02:30:40;17.85;;;6.88;;
59338;SDS011;45117;50.960;5.500;2023-05-29T02:33:07;12.13;;;6.47;;
59338;SDS011;45117;50.960;5.500;2023-05-29T02:35:35;15.63;;;6.57;;
59338;SDS011;45117;50.960;5.500;2023-05-29T02:38:01;15.00;;;6.35;;
59338;SDS011;45117;50.960;5.500;2023-05-29T02:40:28;13.90;;;4.93;;
59338;SDS011;45117;50.960;5.500;2023-05-29T02:42:54;16.80;;;5.65;;
59338;SDS011;45117;50.960;5.500;2023-05-29T02:45:21;17.33;;;5.97;;
59338;SDS011;45117;50.960;5.500;2023-05-29T02:47:47;16.38;;;5.05;;
59338;SDS011;45117;50.960;5.500;2023-05-29T02:50:14;14.35;;;5.40;;
59338;SDS011;45117;50.960;5.500;2023-05-29T02:52:42;16.80;;;5.15;;
59338;SDS011;45117;50.960;5.500;2023-05-29T02:55:08;15.38;;;4.97;;
59338;SDS011;45117;50.960;5.500;2023-05-29T02:57:35;13.10;;;4.28;;
59338;SDS011;45117;50.960;5.500;2023-05-29T03:00:01;16.90;;;4.90;;
59338;SDS011;45117;50.960;5.500;2023-05-29T03:02:31;15.82;;;4.78;;
59338;SDS011;45117;50.960;5.500;2023-05-29T03:04:58;13.98;;;5.18;;
59338;SDS011;45117;50.960;5.500;2023-05-29T03:07:25;14.57;;;4.57;;
59338;SDS011;45117;50.960;5.500;2023-05-29T03:09:53;15.93;;;4.47;;
59338;SDS011;45117;50.960;5.500;2023-05-29T03:12:20;16.23;;;4.55;;
59338;SDS011;45117;50.960;5.500;2023-05-29T03:14:46;13.95;;;4.10;;
59338;SDS011;45117;50.960;5.500;2023-05-29T03:17:13;17.05;;;3.97;;
59338;SDS011;45117;50.960;5.500;2023-05-29T03:19:39;14.50;;;4.00;;
59338;SDS011;45117;50.960;5.500;2023-05-29T03:22:06;13.65;;;3.90;;
59338;SDS011;45117;50.960;5.500;2023-05-29T03:24:32;12.98;;;3.70;;
59338;SDS011;45117;50.960;5.500;2023-05-29T03:27:01;13.48;;;3.60;;
59338;SDS011;45117;50.960;5.500;2023-05-29T03:29:28;14.15;;;3.55;;
59338;SDS011;45117;50.960;5.500;2023-05-29T03:31:55;11.88;;;3.17;;
59338;SDS011;45117;50.960;5.500;2023-05-29T03:34:22;15.20;;;3.60;;
59338;SDS011;45117;50.960;5.500;2023-05-29T03:36:48;16.55;;;3.45;;
59338;SDS011;45117;50.960;5.500;2023-05-29T03:39:15;14.88;;;3.60;;
59338;SDS011;45117;50.960;5.500;2023-05-29T03:41:41;10.13;;;3.35;;
59338;SDS011;45117;50.960;5.500;2023-05-29T03:44:09;17.33;;;3.33;;
59338;SDS011;45117;50.960;5.500;2023-05-29T03:46:35;16.63;;;3.10;;
59338;SDS011;45117;50.960;5.500;2023-05-29T03:49:02;15.38;;;3.35;;
59338;SDS011;45117;50.960;5.500;2023-05-29T03:51:28;16.55;;;2.92;;
59338;SDS011;45117;50.960;5.500;2023-05-29T03:53:55;10.77;;;2.80;;
59338;SDS011;45117;50.960;5.500;2023-05-29T03:56:22;17.90;;;3.10;;
59338;SDS011;45117;50.960;5.500;2023-05-29T03:58:49;10.70;;;2.70;;
59338;SDS011;45117;50.960;5.500;2023-05-29T04:01:17;13.75;;;3.00;;
59338;SDS011;45117;50.960;5.500;2023-05-29T04:03:43;12.40;;;3.17;;
59338;SDS011;45117;50.960;5.500;2023-05-29T04:06:11;10.93;;;2.95;;
59338;SDS011;45117;50.960;5.500;2023-05-29T04:08:38;12.05;;;2.83;;
59338;SDS011;45117;50.960;5.500;2023-05-29T04:11:04;12.75;;;2.72;;
59338;SDS011;45117;50.960;5.500;2023-05-29T04:13:31;14.48;;;2.83;;
59338;SDS011;45117;50.960;5.500;2023-05-29T04:15:57;15.35;;;2.60;;
59338;SDS011;45117;50.960;5.500;2023-05-29T04:18:25;19.25;;;3.53;;
59338;SDS011;45117;50.960;5.500;2023-05-29T04:20:51;11.48;;;2.22;;
59338;SDS011;45117;50.960;5.500;2023-05-29T04:23:18;14.52;;;2.75;;
59338;SDS011;45117;50.960;5.500;2023-05-29T04:25:45;15.85;;;2.78;;
59338;SDS011;45117;50.960;5.500;2023-05-29T04:28:12;10.85;;;2.53;;
59338;SDS011;45117;50.960;5.500;2023-05-29T04:30:38;15.18;;;3.13;;
59338;SDS011;45117;50.960;5.500;2023-05-29T04:33:06;14.77;;;2.85;;
59338;SDS011;45117;50.960;5.500;2023-05-29T04:35:35;11.88;;;2.72;;
59338;SDS011;45117;50.960;5.500;2023-05-29T04:38:02;19.52;;;3.10;;
59338;SDS011;45117;50.960;5.500;2023-05-29T04:40:29;13.07;;;2.75;;
59338;SDS011;45117;50.960;5.500;2023-05-29T04:42:56;13.70;;;2.78;;
59338;SDS011;45117;50.960;5.500;2023-05-29T04:45:25;15.93;;;3.08;;
59338;SDS011;45117;50.960;5.500;2023-05-29T04:47:52;10.82;;;2.70;;
59338;SDS011;45117;50.960;5.500;2023-05-29T04:50:21;13.50;;;2.80;;
59338;SDS011;45117;50.960;5.500;2023-05-29T04:52:50;14.45;;;3.05;;
59338;SDS011;45117;50.960;5.500;2023-05-29T04:55:16;12.25;;;2.75;;
59338;SDS011;45117;50.960;5.500;2023-05-29T04:57:43;17.35;;;2.90;;
59338;SDS011;45117;50.960;5.500;2023-05-29T05:00:10;12.70;;;2.80;;
59338;SDS011;45117;50.960;5.500;2023-05-29T05:02:39;15.95;;;2.80;;
59338;SDS011;45117;50.960;5.500;2023-05-29T05:05:07;12.52;;;2.58;;
59338;SDS011;45117;50.960;5.500;2023-05-29T05:07:33;12.63;;;2.65;;
59338;SDS011;45117;50.960;5.500;2023-05-29T05:10:01;17.00;;;3.13;;
59338;SDS011;45117;50.960;5.500;2023-05-29T05:12:28;15.50;;;3.28;;
59338;SDS011;45117;50.960;5.500;2023-05-29T05:14:54;11.95;;;2.42;;
59338;SDS011;45117;50.960;5.500;2023-05-29T05:17:21;14.98;;;2.70;;
59338;SDS011;45117;50.960;5.500;2023-05-29T05:19:48;12.45;;;2.47;;
59338;SDS011;45117;50.960;5.500;2023-05-29T05:22:15;11.98;;;2.60;;
59338;SDS011;45117;50.960;5.500;2023-05-29T05:24:41;14.55;;;2.53;;
59338;SDS011;45117;50.960;5.500;2023-05-29T05:27:09;9.55;;;2.28;;
59338;SDS011;45117;50.960;5.500;2023-05-29T05:29:35;13.57;;;2.70;;
59338;SDS011;45117;50.960;5.500;2023-05-29T05:32:02;15.07;;;3.08;;
59338;SDS011;45117;50.960;5.500;2023-05-29T05:34:29;11.23;;;2.75;;
59338;SDS011;45117;50.960;5.500;2023-05-29T05:36:55;10.88;;;2.30;;
59338;SDS011;45117;50.960;5.500;2023-05-29T05:39:22;11.65;;;2.35;;
59338;SDS011;45117;50.960;5.500;2023-05-29T05:41:48;14.15;;;3.10;;
59338;SDS011;45117;50.960;5.500;2023-05-29T05:44:16;11.38;;;2.47;;
59338;SDS011;45117;50.960;5.500;2023-05-29T05:46:43;13.80;;;2.92;;
59338;SDS011;45117;50.960;5.500;2023-05-29T05:49:10;15.60;;;2.60;;
59338;SDS011;45117;50.960;5.500;2023-05-29T05:51:36;12.65;;;2.67;;
59338;SDS011;45117;50.960;5.500;2023-05-29T05:54:03;12.00;;;2.50;;
59338;SDS011;45117;50.960;5.500;2023-05-29T05:56:29;12.68;;;2.75;;
59338;SDS011;45117;50.960;5.500;2023-05-29T05:58:56;14.60;;;2.63;;
59338;SDS011;45117;50.960;5.500;2023-05-29T06:01:24;11.20;;;2.28;;
59338;SDS011;45117;50.960;5.500;2023-05-29T06:03:50;11.32;;;2.38;;
59338;SDS011;45117;50.960;5.500;2023-05-29T06:06:17;13.07;;;2.65;;
59338;SDS011;45117;50.960;5.500;2023-05-29T06:08:44;11.85;;;2.63;;
59338;SDS011;45117;50.960;5.500;2023-05-29T06:11:11;14.40;;;2.88;;
59338;SDS011;45117;50.960;5.500;2023-05-29T06:13:37;13.25;;;2.35;;
59338;SDS011;45117;50.960;5.500;2023-05-29T06:16:04;14.38;;;2.95;;
59338;SDS011;45117;50.960;5.500;2023-05-29T06:18:32;13.18;;;2.72;;
59338;SDS011;45117;50.960;5.500;2023-05-29T06:20:58;11.18;;;2.53;;
59338;SDS011;45117;50.960;5.500;2023-05-29T06:23:26;12.50;;;3.10;;
59338;SDS011;45117;50.960;5.500;2023-05-29T06:25:52;8.82;;;2.30;;
59338;SDS011;45117;50.960;5.500;2023-05-29T06:28:19;12.30;;;2.55;;
59338;SDS011;45117;50.960;5.500;2023-05-29T06:30:45;13.35;;;2.50;;
59338;SDS011;45117;50.960;5.500;2023-05-29T06:33:12;11.82;;;2.35;;
59338;SDS011;45117;50.960;5.500;2023-05-29T06:35:40;11.48;;;2.28;;
59338;SDS011;45117;50.960;5.500;2023-05-29T06:38:06;12.52;;;2.55;;
59338;SDS011;45117;50.960;5.500;2023-05-29T06:40:33;12.38;;;2.63;;
59338;SDS011;45117;50.960;5.500;2023-05-29T06:43:00;11.70;;;2.58;;
59338;SDS011;45117;50.960;5.500;2023-05-29T06:45:26;10.13;;;2.75;;
59338;SDS011;45117;50.960;5.500;2023-05-29T06:47:53;11.27;;;2.78;;
59338;SDS011;45117;50.960;5.500;2023-05-29T06:50:20;10.93;;;3.13;;
59338;SDS011;45117;50.960;5.500;2023-05-29T06:52:48;10.95;;;2.65;;
59338;SDS011;45117;50.960;5.500;2023-05-29T06:55:14;13.20;;;2.63;;
59338;SDS011;45117;50.960;5.500;2023-05-29T06:57:41;12.20;;;2.53;;
59338;SDS011;45117;50.960;5.500;2023-05-29T07:00:08;12.90;;;2.30;;
59338;SDS011;45117;50.960;5.500;2023-05-29T07:02:36;15.13;;;2.97;;
59338;SDS011;45117;50.960;5.500;2023-05-29T07:05:03;11.63;;;2.42;;
59338;SDS011;45117;50.960;5.500;2023-05-29T07:07:30;10.88;;;2.65;;
59338;SDS011;45117;50.960;5.500;2023-05-29T07:09:57;14.23;;;2.60;;
59338;SDS011;45117;50.960;5.500;2023-05-29T07:12:24;10.45;;;2.53;;
59338;SDS011;45117;50.960;5.500;2023-05-29T07:14:50;9.82;;;2.45;;
59338;SDS011;45117;50.960;5.500;2023-05-29T07:17:17;12.18;;;2.70;;
59338;SDS011;45117;50.960;5.500;2023-05-29T07:19:43;13.00;;;2.80;;
59338;SDS011;45117;50.960;5.500;2023-05-29T07:22:10;11.57;;;2.58;;
59338;SDS011;45117;50.960;5.500;2023-05-29T07:24:36;14.20;;;2.67;;
59338;SDS011;45117;50.960;5.500;2023-05-29T07:27:04;9.93;;;2.50;;
59338;SDS011;45117;50.960;5.500;2023-05-29T07:29:31;14.07;;;2.70;;
59338;SDS011;45117;50.960;5.500;2023-05-29T07:31:58;10.77;;;2.58;;
59338;SDS011;45117;50.960;5.500;2023-05-29T07:34:24;12.50;;;2.67;;
59338;SDS011;45117;50.960;5.500;2023-05-29T07:36:57;13.02;;;2.47;;
59338;SDS011;45117;50.960;5.500;2023-05-29T07:39:26;10.95;;;2.47;;
59338;SDS011;45117;50.960;5.500;2023-05-29T07:41:53;12.25;;;2.90;;
59338;SDS011;45117;50.960;5.500;2023-05-29T07:44:21;12.57;;;2.42;;
59338;SDS011;45117;50.960;5.500;2023-05-29T07:46:47;9.93;;;2.42;;
59338;SDS011;45117;50.960;5.500;2023-05-29T07:49:14;9.85;;;2.88;;
59338;SDS011;45117;50.960;5.500;2023-05-29T07:51:40;11.55;;;2.67;;
59338;SDS011;45117;50.960;5.500;2023-05-29T07:54:07;10.57;;;2.65;;
59338;SDS011;45117;50.960;5.500;2023-05-29T07:56:34;11.00;;;2.60;;
59338;SDS011;45117;50.960;5.500;2023-05-29T07:59:00;9.20;;;2.20;;
59338;SDS011;45117;50.960;5.500;2023-05-29T08:01:28;11.68;;;2.67;;
59338;SDS011;45117;50.960;5.500;2023-05-29T08:03:55;17.48;;;3.42;;
59338;SDS011;45117;50.960;5.500;2023-05-29T08:06:21;12.60;;;2.65;;
59338;SDS011;45117;50.960;5.500;2023-05-29T08:08:48;11.38;;;2.28;;
59338;SDS011;45117;50.960;5.500;2023-05-29T08:11:15;11.68;;;2.78;;
59338;SDS011;45117;50.960;5.500;2023-05-29T08:13:41;9.52;;;2.15;;
59338;SDS011;45117;50.960;5.500;2023-05-29T08:16:08;13.05;;;2.95;;
59338;SDS011;45117;50.960;5.500;2023-05-29T08:18:36;9.00;;;2.63;;
59338;SDS011;45117;50.960;5.500;2023-05-29T08:21:03;11.60;;;2.70;;
59338;SDS011;45117;50.960;5.500;2023-05-29T08:23:30;9.88;;;2.92;;
59338;SDS011;45117;50.960;5.500;2023-05-29T08:25:57;16.10;;;2.67;;
59338;SDS011;45117;50.960;5.500;2023-05-29T08:28:24;16.05;;;3.10;;
59338;SDS011;45117;50.960;5.500;2023-05-29T08:30:51;11.13;;;2.63;;
59338;SDS011;45117;50.960;5.500;2023-05-29T08:33:18;15.30;;;3.00;;
59338;SDS011;45117;50.960;5.500;2023-05-29T08:35:46;8.68;;;2.20;;
59338;SDS011;45117;50.960;5.500;2023-05-29T08:38:12;11.43;;;3.20;;
59338;SDS011;45117;50.960;5.500;2023-05-29T08:40:39;13.15;;;2.75;;
59338;SDS011;45117;50.960;5.500;2023-05-29T08:43:08;8.63;;;2.28;;
59338;SDS011;45117;50.960;5.500;2023-05-29T08:45:39;13.40;;;2.83;;
59338;SDS011;45117;50.960;5.500;2023-05-29T08:48:09;12.25;;;2.63;;
59338;SDS011;45117;50.960;5.500;2023-05-29T08:50:37;11.57;;;2.60;;
59338;SDS011;45117;50.960;5.500;2023-05-29T08:53:10;12.60;;;3.03;;
59338;SDS011;45117;50.960;5.500;2023-05-29T08:55:37;13.13;;;2.97;;
59338;SDS011;45117;50.960;5.500;2023-05-29T08:58:04;13.02;;;3.10;;
59338;SDS011;45117;50.960;5.500;2023-05-29T09:00:31;13.80;;;3.08;;
59338;SDS011;45117;50.960;5.500;2023-05-29T09:02:58;10.30;;;2.42;;
59338;SDS011;45117;50.960;5.500;2023-05-29T09:05:25;9.65;;;2.55;;
59338;SDS011;45117;50.960;5.500;2023-05-29T09:07:52;7.93;;;2.45;;
59338;SDS011;45117;50.960;5.500;2023-05-29T09:10:20;9.48;;;2.47;;
59338;SDS011;45117;50.960;5.500;2023-05-29T09:12:48;14.73;;;2.88;;
59338;SDS011;45117;50.960;5.500;2023-05-29T09:15:18;8.70;;;2.67;;
59338;SDS011;45117;50.960;5.500;2023-05-29T09:17:49;13.10;;;2.70;;
59338;SDS011;45117;50.960;5.500;2023-05-29T09:20:17;11.18;;;2.78;;
59338;SDS011;45117;50.960;5.500;2023-05-29T09:22:46;10.60;;;3.13;;
59338;SDS011;45117;50.960;5.500;2023-05-29T09:25:20;12.20;;;2.90;;
59338;SDS011;45117;50.960;5.500;2023-05-29T09:27:54;12.02;;;2.97;;
59338;SDS011;45117;50.960;5.500;2023-05-29T09:30:32;16.08;;;3.25;;
59338;SDS011;45117;50.960;5.500;2023-05-29T09:33:00;11.75;;;2.40;;
59338;SDS011;45117;50.960;5.500;2023-05-29T09:35:32;14.48;;;2.60;;
59338;SDS011;45117;50.960;5.500;2023-05-29T09:37:59;11.30;;;2.90;;
59338;SDS011;45117;50.960;5.500;2023-05-29T09:40:27;14.32;;;3.45;;
59338;SDS011;45117;50.960;5.500;2023-05-29T09:42:56;10.32;;;2.70;;
59338;SDS011;45117;50.960;5.500;2023-05-29T09:45:29;9.35;;;2.60;;
59338;SDS011;45117;50.960;5.500;2023-05-29T09:47:56;11.32;;;2.50;;
59338;SDS011;45117;50.960;5.500;2023-05-29T09:50:25;9.50;;;2.75;;
59338;SDS011;45117;50.960;5.500;2023-05-29T09:52:52;12.77;;;2.80;;
59338;SDS011;45117;50.960;5.500;2023-05-29T09:55:19;12.15;;;3.28;;
59338;SDS011;45117;50.960;5.500;2023-05-29T09:57:48;10.85;;;2.60;;
59338;SDS011;45117;50.960;5.500;2023-05-29T10:00:15;10.40;;;2.53;;
59338;SDS011;45117;50.960;5.500;2023-05-29T10:02:43;12.00;;;2.78;;
59338;SDS011;45117;50.960;5.500;2023-05-29T10:05:10;8.88;;;2.70;;
59338;SDS011;45117;50.960;5.500;2023-05-29T10:07:40;13.05;;;2.97;;
59338;SDS011;45117;50.960;5.500;2023-05-29T10:10:11;11.73;;;2.72;;
59338;SDS011;45117;50.960;5.500;2023-05-29T10:12:39;11.23;;;2.75;;
59338;SDS011;45117;50.960;5.500;2023-05-29T10:15:15;10.10;;;2.65;;
59338;SDS011;45117;50.960;5.500;2023-05-29T10:17:48;10.55;;;2.53;;
59338;SDS011;45117;50.960;5.500;2023-05-29T10:20:16;11.82;;;3.00;;
59338;SDS011;45117;50.960;5.500;2023-05-29T10:22:45;10.30;;;2.92;;
59338;SDS011;45117;50.960;5.500;2023-05-29T10:25:14;10.48;;;2.47;;
59338;SDS011;45117;50.960;5.500;2023-05-29T10:27:44;13.10;;;2.80;;
59338;SDS011;45117;50.960;5.500;2023-05-29T10:30:12;10.82;;;2.55;;
59338;SDS011;45117;50.960;5.500;2023-05-29T10:32:53;9.20;;;2.50;;
59338;SDS011;45117;50.960;5.500;2023-05-29T10:35:27;11.43;;;2.90;;
59338;SDS011;45117;50.960;5.500;2023-05-29T10:38:08;13.65;;;2.65;;
59338;SDS011;45117;50.960;5.500;2023-05-29T10:40:37;10.50;;;2.63;;
59338;SDS011;45117;50.960;5.500;2023-05-29T10:43:04;10.32;;;2.45;;
59338;SDS011;45117;50.960;5.500;2023-05-29T10:45:51;10.60;;;2.60;;
59338;SDS011;45117;50.960;5.500;2023-05-29T10:51:23;10.05;;;2.42;;
59338;SDS011;45117;50.960;5.500;2023-05-29T10:53:51;7.20;;;2.05;;
59338;SDS011;45117;50.960;5.500;2023-05-29T10:56:20;12.63;;;2.83;;
59338;SDS011;45117;50.960;5.500;2023-05-29T10:58:52;11.85;;;2.70;;
59338;SDS011;45117;50.960;5.500;2023-05-29T11:01:22;10.68;;;2.15;;
59338;SDS011;45117;50.960;5.500;2023-05-29T11:03:50;11.05;;;2.65;;
59338;SDS011;45117;50.960;5.500;2023-05-29T11:06:18;11.02;;;2.45;;
59338;SDS011;45117;50.960;5.500;2023-05-29T11:08:46;12.77;;;2.60;;
59338;SDS011;45117;50.960;5.500;2023-05-29T11:11:14;7.95;;;2.17;;
59338;SDS011;45117;50.960;5.500;2023-05-29T11:13:41;10.20;;;2.30;;
59338;SDS011;45117;50.960;5.500;2023-05-29T11:16:19;9.55;;;2.35;;
59338;SDS011;45117;50.960;5.500;2023-05-29T11:18:48;8.05;;;2.40;;
59338;SDS011;45117;50.960;5.500;2023-05-29T11:24:18;9.15;;;2.38;;
59338;SDS011;45117;50.960;5.500;2023-05-29T11:26:48;11.48;;;2.38;;
59338;SDS011;45117;50.960;5.500;2023-05-29T11:29:17;7.78;;;2.03;;
59338;SDS011;45117;50.960;5.500;2023-05-29T11:31:47;9.82;;;2.50;;
59338;SDS011;45117;50.960;5.500;2023-05-29T11:34:23;10.25;;;2.20;;
59338;SDS011;45117;50.960;5.500;2023-05-29T11:36:52;8.82;;;2.35;;
59338;SDS011;45117;50.960;5.500;2023-05-29T11:39:20;8.82;;;2.28;;
59338;SDS011;45117;50.960;5.500;2023-05-29T11:41:50;11.30;;;2.30;;
59338;SDS011;45117;50.960;5.500;2023-05-29T11:44:17;8.90;;;2.25;;
59338;SDS011;45117;50.960;5.500;2023-05-29T11:46:44;7.38;;;2.00;;
59338;SDS011;45117;50.960;5.500;2023-05-29T11:49:11;9.82;;;2.17;;
59338;SDS011;45117;50.960;5.500;2023-05-29T11:51:41;14.45;;;2.35;;
59338;SDS011;45117;50.960;5.500;2023-05-29T11:54:08;7.43;;;2.25;;
59338;SDS011;45117;50.960;5.500;2023-05-29T11:56:35;8.10;;;2.13;;
59338;SDS011;45117;50.960;5.500;2023-05-29T11:59:05;9.73;;;2.20;;
59338;SDS011;45117;50.960;5.500;2023-05-29T12:01:37;8.02;;;2.10;;
59338;SDS011;45117;50.960;5.500;2023-05-29T12:04:13;9.50;;;2.20;;
59338;SDS011;45117;50.960;5.500;2023-05-29T12:06:41;7.13;;;2.35;;
59338;SDS011;45117;50.960;5.500;2023-05-29T12:09:08;9.88;;;2.15;;
59338;SDS011;45117;50.960;5.500;2023-05-29T12:11:34;7.22;;;1.95;;
59338;SDS011;45117;50.960;5.500;2023-05-29T12:14:01;8.70;;;2.17;;
59338;SDS011;45117;50.960;5.500;2023-05-29T12:16:28;6.75;;;1.88;;
59338;SDS011;45117;50.960;5.500;2023-05-29T12:18:57;6.45;;;2.10;;
59338;SDS011;45117;50.960;5.500;2023-05-29T12:21:23;8.77;;;2.35;;
59338;SDS011;45117;50.960;5.500;2023-05-29T12:23:52;11.02;;;2.30;;
59338;SDS011;45117;50.960;5.500;2023-05-29T12:26:21;5.20;;;2.08;;
59338;SDS011;45117;50.960;5.500;2023-05-29T12:28:48;9.07;;;2.38;;
59338;SDS011;45117;50.960;5.500;2023-05-29T12:31:25;6.88;;;2.40;;
59338;SDS011;45117;50.960;5.500;2023-05-29T12:33:53;6.78;;;2.15;;
59338;SDS011;45117;50.960;5.500;2023-05-29T12:36:19;5.85;;;1.92;;
59338;SDS011;45117;50.960;5.500;2023-05-29T12:38:53;10.00;;;2.45;;
59338;SDS011;45117;50.960;5.500;2023-05-29T12:41:21;7.22;;;2.28;;
59338;SDS011;45117;50.960;5.500;2023-05-29T12:43:52;10.95;;;2.47;;
59338;SDS011;45117;50.960;5.500;2023-05-29T12:46:20;8.27;;;2.25;;
59338;SDS011;45117;50.960;5.500;2023-05-29T12:48:46;10.32;;;2.30;;
59338;SDS011;45117;50.960;5.500;2023-05-29T12:51:14;6.13;;;2.15;;
59338;SDS011;45117;50.960;5.500;2023-05-29T12:53:41;9.25;;;2.17;;
59338;SDS011;45117;50.960;5.500;2023-05-29T12:56:09;8.63;;;2.40;;
59338;SDS011;45117;50.960;5.500;2023-05-29T12:58:35;6.90;;;2.00;;
59338;SDS011;45117;50.960;5.500;2023-05-29T13:01:02;7.25;;;1.90;;
59338;SDS011;45117;50.960;5.500;2023-05-29T13:03:28;7.53;;;2.20;;
59338;SDS011;45117;50.960;5.500;2023-05-29T13:05:55;7.97;;;2.30;;
59338;SDS011;45117;50.960;5.500;2023-05-29T13:08:21;7.70;;;2.30;;
59338;SDS011;45117;50.960;5.500;2023-05-29T13:10:48;7.45;;;2.35;;
59338;SDS011;45117;50.960;5.500;2023-05-29T13:13:16;8.90;;;2.17;;
59338;SDS011;45117;50.960;5.500;2023-05-29T13:15:43;12.60;;;2.22;;
59338;SDS011;45117;50.960;5.500;2023-05-29T13:18:10;11.38;;;2.22;;
59338;SDS011;45117;50.960;5.500;2023-05-29T13:20:36;7.90;;;2.20;;
59338;SDS011;45117;50.960;5.500;2023-05-29T13:23:03;9.55;;;2.40;;
59338;SDS011;45117;50.960;5.500;2023-05-29T13:25:30;6.10;;;2.05;;
59338;SDS011;45117;50.960;5.500;2023-05-29T13:27:56;6.22;;;2.13;;
59338;SDS011;45117;50.960;5.500;2023-05-29T13:30:24;6.53;;;2.35;;
59338;SDS011;45117;50.960;5.500;2023-05-29T13:32:51;7.75;;;2.33;;
59338;SDS011;45117;50.960;5.500;2023-05-29T13:35:18;6.50;;;2.00;;
59338;SDS011;45117;50.960;5.500;2023-05-29T13:37:45;7.65;;;2.10;;
59338;SDS011;45117;50.960;5.500;2023-05-29T13:40:11;8.63;;;2.03;;
59338;SDS011;45117;50.960;5.500;2023-05-29T13:42:38;6.82;;;2.38;;
59338;SDS011;45117;50.960;5.500;2023-05-29T13:45:06;10.07;;;1.98;;
59338;SDS011;45117;50.960;5.500;2023-05-29T13:47:35;7.22;;;1.90;;
59338;SDS011;45117;50.960;5.500;2023-05-29T13:50:02;8.93;;;2.08;;
59338;SDS011;45117;50.960;5.500;2023-05-29T13:52:29;5.70;;;2.03;;
59338;SDS011;45117;50.960;5.500;2023-05-29T13:54:55;7.65;;;2.40;;
59338;SDS011;45117;50.960;5.500;2023-05-29T13:57:23;7.22;;;1.92;;
59338;SDS011;45117;50.960;5.500;2023-05-29T13:59:49;9.50;;;2.03;;
59338;SDS011;45117;50.960;5.500;2023-05-29T14:02:16;7.50;;;2.00;;
59338;SDS011;45117;50.960;5.500;2023-05-29T14:04:43;7.97;;;2.30;;
59338;SDS011;45117;50.960;5.500;2023-05-29T14:07:10;7.97;;;2.30;;
59338;SDS011;45117;50.960;5.500;2023-05-29T14:09:36;9.82;;;2.20;;
59338;SDS011;45117;50.960;5.500;2023-05-29T14:12:03;7.22;;;2.25;;
59338;SDS011;45117;50.960;5.500;2023-05-29T14:14:32;6.07;;;1.83;;
59338;SDS011;45117;50.960;5.500;2023-05-29T14:16:59;6.25;;;1.98;;
59338;SDS011;45117;50.960;5.500;2023-05-29T14:19:25;8.63;;;2.28;;
59338;SDS011;45117;50.960;5.500;2023-05-29T14:21:53;9.68;;;2.10;;
59338;SDS011;45117;50.960;5.500;2023-05-29T14:24:20;8.25;;;2.35;;
59338;SDS011;45117;50.960;5.500;2023-05-29T14:26:46;8.48;;;2.13;;
59338;SDS011;45117;50.960;5.500;2023-05-29T14:29:13;7.93;;;2.30;;
59338;SDS011;45117;50.960;5.500;2023-05-29T14:31:40;7.88;;;2.25;;
59338;SDS011;45117;50.960;5.500;2023-05-29T14:34:07;8.32;;;2.50;;
59338;SDS011;45117;50.960;5.500;2023-05-29T14:36:33;9.18;;;2.22;;
59338;SDS011;45117;50.960;5.500;2023-05-29T14:39:01;8.60;;;2.28;;
59338;SDS011;45117;50.960;5.500;2023-05-29T14:41:28;6.40;;;2.30;;
59338;SDS011;45117;50.960;5.500;2023-05-29T14:43:55;7.50;;;2.20;;
59338;SDS011;45117;50.960;5.500;2023-05-29T14:46:23;7.28;;;2.30;;
59338;SDS011;45117;50.960;5.500;2023-05-29T14:48:49;7.20;;;2.15;;
59338;SDS011;45117;50.960;5.500;2023-05-29T14:51:16;9.20;;;2.20;;